SBDN/PPB METAR and TAF weather

Enter ICAO airport designator
Station Type Date Time Source
SBDN METAR 2020/04/03 21:00 UTC NOAA

SBDN 032100Z 25009KT CAVOK 27/10 Q1010


Station Type Date Time Source
SBDN Decoded METAR 2020/04/03 21:00 UTC NOAA

Presidente Prudente, Brazil (SBDN) 22-07S 051-23W
Apr 03, 2020 - 05:00 PM EDT / 2020.04.03 2100 UTC
Wind: from the WSW (250 degrees) at 10 MPH (9 KT):0
Visibility: greater than 7 mile(s):0
Temperature: 80 F (27 C)
Dew Point: 50 F (10 C)
Relative Humidity: 34%
Pressure (altimeter): 29.83 in. Hg (1010 hPa)
ob: SBDN 032100Z 25009KT CAVOK 27/10 Q1010
cycle: 21

Station Type Date Time Source
SBDN TAF 2020/04/03 18:36 UTC NOAA

TAF SBDN 031500Z 0318/0406 14008KT 9999 SCT025 TX33/0319Z TN23/0405Z
BECMG 0323/0401 BKN020
RMK PEA

Example: see airport list